• Join FlightAware (Why Join?)
  • Login
  • US Flag 
05:20PM EDT


 

Airport Tracker/Info


-or-


 

Live Flight TrackerFlight Track Log ✈ TSU216 ✈ 10-May-2013 ✈ MMHO / HMO - KRFD

Flight Track Log - Related Links

Times and Time Zones

All times are in EDT time to prevent confusion due to time zone crossing. See the TSU216 flight status page for this flight to view local times or setup timezone preferences in your user account.

Time Position Orientation Groundspeed Altitude Reporting Facility
EDT Latitude Longitude Course Direction KTS MPH feet Rate Location/Type
05:14AM 31.6700 -106.3764 48° Northeast 530 610 32,900  Level Albuquerque Center
05:15AM 31.7653 -106.2472 49° Northeast 525 604 32,900  Level Albuquerque Center
05:16AM 31.8567 -106.1189 50° Northeast 520 598 32,900  Level Albuquerque Center
05:17AM 31.9403 -105.9633 58° Northeast 514 592 32,900  Level Albuquerque Center
05:18AM 32.0078 -105.8314 59° Northeast 517 595 32,900  Level Albuquerque Center
05:19AM 34.6003 -103.4413 48° Northeast  Level Estimated
05:19AM 32.0831 -105.6881 58° Northeast 513 590 32,900  Level Albuquerque Center
05:20AM 32.1622 -105.5469 56° Northeast 513 590 32,900  Level Albuquerque Center
05:21AM 32.2306 -105.4006 61° Northeast 512 589 33,000  Climbing Albuquerque Center
05:22AM 32.2864 -105.2442 67° East 513 590 32,900  Descending Albuquerque Center
05:23AM 32.3417 -105.0919 67° East 510 587 33,000  Climbing Albuquerque Center
05:24AM 32.4022 -104.9397 65° Northeast 510 587 32,900 -60 Descending Albuquerque Center
05:25AM 32.4653 -104.7592 67° East 513 590 32,900  Level Albuquerque Center
05:26AM 32.5242 -104.6119 65° Northeast 503 579 33,000  Climbing Albuquerque Center
05:27AM 32.5836 -104.4606 65° Northeast 507 583 33,000  Level Albuquerque Center
05:28AM 32.6431 -104.3089 65° Northeast 510 587 33,000  Level Albuquerque Center
05:29AM 32.7322 -104.1769 51° Northeast 521 600 33,000  Level Albuquerque Center
05:30AM 32.8275 -104.0544 47° Northeast 509 586 33,000  Level Albuquerque Center
05:31AM 32.9242 -103.9308 47° Northeast 512 589 33,000  Level Albuquerque Center
05:32AM 33.0206 -103.8064 47° Northeast 513 590 33,000  Level Albuquerque Center
05:33AM 33.1175 -103.6833 47° Northeast 513 590 33,000  Level Albuquerque Center
05:34AM 33.2108 -103.5572 48° Northeast 507 583 33,000  Level Albuquerque Center
05:35AM 33.3083 -103.4319 47° Northeast 511 588 33,000  Level Albuquerque Center
05:36AM 33.4075 -103.3053 47° Northeast 517 595 33,000  Level Albuquerque Center
05:37AM 33.5008 -103.1753 49° Northeast 515 593 33,000  Level Albuquerque Center
05:38AM 33.5592 -103.1006 47° Northeast 514 592 33,000  Level Albuquerque Center
05:39AM 33.6564 -102.9750 47° Northeast 513 590 33,000  Level Albuquerque Center
05:40AM 33.7500 -102.8461 49° Northeast 512 589 33,000  Level Albuquerque Center
05:41AM 33.8458 -102.7206 47° Northeast 510 587 33,000  Level Albuquerque Center
05:42AM 33.9414 -102.5958 47° Northeast 508 585 33,000  Level Albuquerque Center
05:43AM 34.0342 -102.4664 49° Northeast 508 585 33,000  Level Albuquerque Center
05:44AM 34.1300 -102.3383 48° Northeast 511 588 33,000  Level Albuquerque Center
05:45AM 34.2186 -102.2178 48° Northeast 512 589 33,000  Level Albuquerque Center
05:46AM 34.3122 -102.0869 49° Northeast 513 590 33,000  Level Albuquerque Center
05:47AM 34.4081 -101.9581 48° Northeast 517 595 33,000  Level Albuquerque Center
05:48AM 34.5011 -101.8275 49° Northeast 515 593 33,000  Level Albuquerque Center
05:49AM 34.5944 -101.6986 49° Northeast 513 590 33,000  Level Albuquerque Center
05:50AM 34.6906 -101.5700 48° Northeast 516 594 33,000  Level Albuquerque Center
05:51AM 34.7817 -101.4397 50° Northeast 512 589 33,000  Level Albuquerque Center
05:52AM 34.8950 -101.2864 48° Northeast 512 589 33,000  Level Albuquerque Center
05:53AM 34.9869 -101.1561 49° Northeast 512 589 33,000  Level Albuquerque Center
05:54AM 35.0789 -101.0264 49° Northeast 511 588 33,000  Level Albuquerque Center
05:55AM 35.1728 -100.8983 48° Northeast 509 586 33,000  Level Albuquerque Center
05:56AM 35.2633 -100.7686 49° Northeast 507 583 33,000  Level Albuquerque Center
05:57AM 35.3444 -100.6522 49° Northeast 506 582 33,000  Level Albuquerque Center
05:58AM 35.4367 -100.5225 49° Northeast 504 580 33,000  Level Albuquerque Center
05:59AM 35.5267 -100.3925 50° Northeast 501 577 33,000  Level Albuquerque Center
06:01AM 35.7461 -100.0786 49° Northeast 502 578 33,000  Level Kansas City Center
06:02AM 35.8372 -99.9464 50° Northeast 502 578 33,000  Level Kansas City Center
06:03AM 35.9281 -99.8139 50° Northeast 503 579 33,000  Level Kansas City Center
06:04AM 36.0194 -99.6794 50° Northeast 505 581 33,000 -60 Level Kansas City Center
06:05AM 36.1125 -99.5450 49° Northeast 508 585 32,900  Descending Kansas City Center
06:06AM 36.2044 -99.4056 51° Northeast 511 588 33,000  Climbing Kansas City Center
06:07AM 36.2989 -99.2669 50° Northeast 515 593 33,000  Level Kansas City Center
06:08AM 36.3931 -99.1261 50° Northeast 519 597 33,000  Level Kansas City Center
06:09AM 36.4856 -98.9847 51° Northeast 523 602 33,000  Level Kansas City Center
06:10AM 36.5814 -98.8447 50° Northeast 526 605 33,000  Level Kansas City Center
06:11AM 36.6747 -98.7033 51° Northeast 526 605 33,000  Level Kansas City Center
06:12AM 36.7706 -98.5622 50° Northeast 529 609 33,000  Level Kansas City Center
06:13AM 36.8644 -98.4175 51° Northeast 532 612 33,000  Level Kansas City Center
06:14AM 36.9522 -98.2861 50° Northeast 533 613 33,000  Level Kansas City Center
06:15AM 37.0464 -98.1436 50° Northeast 534 615 33,000  Level Kansas City Center
06:16AM 37.1375 -97.9972 52° Northeast 535 616 33,000  Level Kansas City Center
06:17AM 37.2294 -97.8528 51° Northeast 533 613 33,000  Level Kansas City Center
06:18AM 37.3194 -97.7111 51° Northeast 526 605 33,000  Level Kansas City Center
06:19AM 37.4106 -97.5694 51° Northeast 525 604 33,000  Level Kansas City Center
06:20AM 37.5011 -97.4314 50° Northeast 517 595 33,000  Level Kansas City Center
06:21AM 37.5900 -97.2944 51° Northeast 510 587 33,000  Level Kansas City Center
06:22AM 37.6778 -97.1564 51° Northeast 508 585 33,000  Level Kansas City Center
06:23AM 37.7844 -96.9939 50° Northeast 503 579 33,000  Level Kansas City Center
06:24AM 37.8706 -96.8547 52° Northeast 503 579 33,000  Level Kansas City Center
06:25AM 37.9564 -96.7181 51° Northeast 499 574 33,000  Level Kansas City Center
06:26AM 38.0442 -96.5781 51° Northeast 506 582 33,000  Level Kansas City Center
06:27AM 38.1319 -96.4342 52° Northeast 515 593 33,000  Level Kansas City Center
06:28AM 38.2225 -96.2878 52° Northeast 518 596 33,000  Level Kansas City Center
06:29AM 38.3125 -96.1503 50° Northeast 526 605 33,000  Level Kansas City Center
06:30AM 38.3964 -96.0036 54° Northeast 535 616 33,000  Level Kansas City Center
06:31AM 38.4956 -95.8289 54° Northeast 545 627 33,000  Level Kansas City Center
06:32AM 38.5856 -95.6900 50° Northeast 535 616 33,000  Level Kansas City Center
06:33AM 38.6731 -95.5436 53° Northeast 542 624 33,000  Level Kansas City Center
06:34AM 38.7758 -95.3742 52° Northeast 542 624 33,000  Level Kansas City Center
06:35AM 38.8656 -95.2314 51° Northeast 540 621 33,000  Level Kansas City Center
06:37AM 38.9514 -95.0894 52° Northeast 532 612 33,000  Level Kansas City Center
06:38AM 39.0492 -94.9264 52° Northeast 524 603 33,000  Level Kansas City Center
06:39AM 39.1314 -94.7839 53° Northeast 522 601 33,000  Level Kansas City Center
06:40AM 39.2158 -94.6428 52° Northeast 523 602 33,000  Level Kansas City Center
06:41AM 39.3133 -94.4797 52° Northeast 517 595 33,000  Level Kansas City Center
06:42AM 39.3939 -94.3358 54° Northeast 516 594 33,000  Level Kansas City Center
06:43AM 39.4775 -94.1939 53° Northeast 519 597 33,000  Level Kansas City Center
06:44AM 39.5753 -94.0286 52° Northeast 519 597 33,000  Level Kansas City Center
06:45AM 39.6561 -93.8828 54° Northeast 521 600 33,000  Level Kansas City Center
06:46AM 39.7419 -93.7350 53° Northeast 523 602 33,000  Level Kansas City Center
06:47AM 39.8281 -93.5842 53° Northeast 524 603 33,000  Level Kansas City Center
06:48AM 39.9144 -93.4322 53° Northeast 524 603 33,000  Level Kansas City Center
06:49AM 40.0025 -93.2808 53° Northeast 526 605 33,000  Level Kansas City Center
06:50AM 40.0833 -93.1256 56° Northeast 523 602 33,000  Level Kansas City Center
06:51AM 40.1789 -92.9536 54° Northeast 524 603 33,000  Level Kansas City Center
06:52AM 40.2619 -92.8031 54° Northeast 528 608 33,000  Level Kansas City Center
06:53AM 40.3481 -92.6467 54° Northeast 529 609 33,000  Level Kansas City Center
06:54AM 40.4367 -92.4878 54° Northeast 534 615 33,000  Level Kansas City Center
06:55AM 40.5211 -92.3333 54° Northeast 533 613 33,000  Level Kansas City Center
06:56AM 40.6081 -92.1775 54° Northeast 531 611 33,000  Level Kansas City Center
06:57AM 40.6922 -92.0197 55° Northeast 531 611 33,000  Level Chicago Center
06:58AM 40.7781 -91.8625 54° Northeast 530 610 33,000  Level Chicago Center
06:59AM 40.8622 -91.7067 54° Northeast 528 608 33,000  Level Chicago Center
07:00AM 40.9450 -91.5483 55° Northeast 528 608 33,000  Level Chicago Center
07:01AM 41.0325 -91.3789 56° Northeast 525 604 33,000  Level Chicago Center
07:02AM 41.1172 -91.2211 54° Northeast 523 602 33,000  Level Chicago Center
07:03AM 41.2019 -91.0647 54° Northeast 519 597 33,000 -900 Level Chicago Center
07:04AM 41.2836 -90.9078 55° Northeast 517 595 31,300 -2,220 Descending Chicago Center
07:05AM 41.3639 -90.7567 55° Northeast 502 578 28,600 -2,640 Descending Chicago Center
07:06AM 41.4400 -90.6103 55° Northeast 483 556 26,000 -2,640 Descending Chicago Center
07:07AM 41.5117 -90.4639 57° Northeast 474 545 23,300 -2,640 Descending Chicago Center
07:08AM 41.5856 -90.3228 55° Northeast 465 535 20,700 -2,640 Descending Chicago Center
07:09AM 41.6569 -90.1900 54° Northeast 445 512 18,000 -2,640 Descending Chicago Center
07:10AM 41.7239 -90.0589 56° Northeast 434 499 15,400 -2,580 Descending Chicago Center
07:11AM 41.7864 -89.9292 57° Northeast 422 486 12,800 -2,040 Descending Chicago Center
07:12AM 41.8433 -89.8114 57° Northeast 389 448 11,300 -1,140 Descending Chicago Center
07:13AM 41.9042 -89.7156 50° Northeast 349 402 10,500 -960 Descending Chicago Center
07:14AM 41.9617 -89.6372 45° Northeast 298 343 9,400 -1,320 Descending Chicago Center
07:15AM 42.0153 -89.5622 46° Northeast 281 323 7,900 -1,560 Descending Chicago Center
07:16AM 42.0711 -89.4669 52° Northeast 269 310 6,300 -1,620 Descending Chicago Center
07:17AM 42.0967 -89.3875 67° East 261 300 4,700 -1,620 Descending Chicago Center
07:18AM 42.1269 -89.3050 64° Northeast 239 275 3,100 -780 Descending Chicago Center
07:19AM 42.1458 -89.2497 65° Northeast 201 231 3,200 -180 Climbing Chicago Center
07:20AM 42.1594 -89.1933 72° East 194 223 2,800 -420 Descending Chicago Center
07:22AM 42.1833 -89.0833 71° East  Level FlightAware Approximate